createdAt,value
2022-10-19T00:01:04.411Z,98288.97
2022-10-19T00:03:34.276Z,98290.47
2022-10-19T00:06:13.144Z,98279.78
2022-10-19T00:08:44.388Z,98290.50
2022-10-19T00:11:14.929Z,98285.91
2022-10-19T00:13:44.916Z,98286.69
2022-10-19T00:16:17.414Z,98287.44
2022-10-19T00:18:47.407Z,98280.03
2022-10-19T00:21:20.012Z,98267.63
2022-10-19T00:23:50.805Z,98282.34
2022-10-19T00:26:20.407Z,98278.78
2022-10-19T00:28:50.739Z,98272.38
2022-10-19T00:31:20.844Z,98280.34
2022-10-19T00:33:50.567Z,98275.50
2022-10-19T00:36:22.046Z,98272.59
2022-10-19T00:38:53.207Z,98266.06
2022-10-19T00:41:23.844Z,98260.63
2022-10-19T00:43:57.264Z,98268.66
2022-10-19T00:46:27.276Z,98262.31
2022-10-19T00:49:01.355Z,98252.38
2022-10-19T00:51:32.023Z,98252.81
2022-10-19T00:54:03.826Z,98254.34
2022-10-19T00:56:34.147Z,98255.78
2022-10-19T00:59:05.508Z,98251.31
2022-10-19T01:01:35.610Z,98249.22
2022-10-19T01:04:06.082Z,98241.06
2022-10-19T01:06:36.294Z,98249.97
2022-10-19T01:09:07.853Z,98253.13
2022-10-19T01:11:44.337Z,98257.16
2022-10-19T01:14:26.851Z,98256.13
2022-10-19T01:17:01.345Z,98255.47
2022-10-19T01:20:00.350Z,98251.31
2022-10-19T01:22:39.557Z,98250.75
2022-10-19T01:25:18.861Z,98247.72
2022-10-19T01:28:05.049Z,98245.03
2022-10-19T01:30:46.580Z,98244.94
2022-10-19T01:33:26.929Z,98241.84
2022-10-19T01:36:03.434Z,98254.28
2022-10-19T01:38:38.033Z,98246.63
2022-10-19T01:41:15.904Z,98239.59
2022-10-19T01:43:48.432Z,98234.84
2022-10-19T01:46:23.023Z,98237.81
2022-10-19T01:48:55.920Z,98236.38
2022-10-19T01:51:28.969Z,98240.84
2022-10-19T01:54:00.977Z,98238.91
2022-10-19T01:56:32.838Z,98245.03
2022-10-19T01:59:05.109Z,98233.50
2022-10-19T02:01:37.457Z,98235.94
2022-10-19T02:04:07.590Z,98232.56
2022-10-19T02:06:37.930Z,98234.88
2022-10-19T02:09:07.302Z,98236.31
2022-10-19T02:11:37.893Z,98233.69
2022-10-19T02:14:11.191Z,98238.88
2022-10-19T02:16:44.782Z,98234.41
2022-10-19T02:19:17.221Z,98237.84
2022-10-19T02:21:47.284Z,98223.44
2022-10-19T02:24:16.727Z,98227.50
2022-10-19T02:26:46.504Z,98226.09
2022-10-19T02:29:17.630Z,98222.78
2022-10-19T02:31:48.581Z,98211.38
2022-10-19T02:34:17.880Z,98217.56
2022-10-19T02:36:47.450Z,98221.97
2022-10-19T02:39:17.257Z,98221.78
2022-10-19T02:41:50.236Z,98223.41
2022-10-19T02:44:24.060Z,98220.16
2022-10-19T02:46:59.211Z,98216.25
2022-10-19T02:49:29.504Z,98218.38
2022-10-19T02:52:01.568Z,98217.50
2022-10-19T02:54:31.502Z,98226.09
2022-10-19T02:57:00.911Z,98222.78
2022-10-19T02:59:30.452Z,98230.13
2022-10-19T03:02:01.605Z,98217.25
2022-10-19T03:04:31.090Z,98218.31
2022-10-19T03:07:00.345Z,98219.06
2022-10-19T03:09:30.022Z,98221.94
2022-10-19T03:11:59.518Z,98219.19
2022-10-19T03:14:29.299Z,98221.66
2022-10-19T03:17:01.194Z,98215.22
2022-10-19T03:19:31.688Z,98219.41
2022-10-19T03:22:01.251Z,98216.84
2022-10-19T03:24:32.186Z,98223.34
2022-10-19T03:27:01.626Z,98228.56
2022-10-19T03:29:31.044Z,98225.66
2022-10-19T03:32:03.966Z,98219.00
2022-10-19T04:08:02.380Z,98247.91
2022-10-19T04:15:07.473Z,98240.78
2022-10-19T04:17:37.414Z,98245.44
2022-10-19T04:20:08.145Z,98245.38
2022-10-19T04:22:37.631Z,98248.09
2022-10-19T04:25:11.250Z,98247.47
2022-10-19T04:27:41.199Z,98246.66
2022-10-19T04:30:11.893Z,98244.56
2022-10-19T04:32:42.087Z,98250.94
2022-10-19T04:35:11.694Z,98256.63
2022-10-19T04:37:41.076Z,98264.38
2022-10-19T04:40:14.979Z,98272.06
2022-10-19T04:42:44.921Z,98267.56
2022-10-19T04:45:14.851Z,98258.09
2022-10-19T04:47:44.497Z,98255.03
2022-10-19T04:50:13.639Z,98260.00
2022-10-19T04:52:42.663Z,98259.75
2022-10-19T04:55:13.392Z,98257.84
2022-10-19T04:57:42.841Z,98260.28
2022-10-19T05:00:13.293Z,98259.38
2022-10-19T05:02:45.691Z,98257.91
2022-10-19T05:05:15.644Z,98264.97
2022-10-19T05:07:45.321Z,98265.81
2022-10-19T05:10:16.398Z,98270.78
2022-10-19T05:12:46.409Z,98268.88
2022-10-19T05:15:15.883Z,98266.16
2022-10-19T05:17:45.640Z,98263.53
2022-10-19T05:20:14.984Z,98264.31
2022-10-19T05:22:44.586Z,98265.13
2022-10-19T05:25:15.416Z,98267.19
2022-10-19T05:27:44.879Z,98264.88
2022-10-19T05:30:14.797Z,98263.31
2022-10-19T05:32:44.189Z,98261.41
2022-10-19T05:35:16.363Z,98255.47
2022-10-19T05:37:48.252Z,98260.81
2022-10-19T05:40:19.494Z,98261.25
2022-10-19T05:42:49.001Z,98254.56
2022-10-19T05:45:18.488Z,98268.78
2022-10-19T05:47:47.761Z,98269.91
2022-10-19T05:50:17.209Z,98277.34
2022-10-19T05:52:50.474Z,98278.53
2022-10-19T05:55:21.151Z,98279.31
2022-10-19T05:57:50.527Z,98280.38
2022-10-19T06:00:20.025Z,98282.31
2022-10-19T06:02:49.389Z,98285.34
2022-10-19T06:05:18.929Z,98294.47
2022-10-19T06:07:48.764Z,98292.84
2022-10-19T06:10:19.312Z,98286.50
2022-10-19T06:12:50.348Z,98290.75
2022-10-19T06:15:19.849Z,98284.72
2022-10-19T06:17:49.126Z,98295.13
2022-10-19T06:20:19.357Z,98304.63
2022-10-19T06:22:51.103Z,98315.44
2022-10-19T06:25:21.565Z,98313.41
2022-10-19T06:27:53.260Z,98314.59
2022-10-19T06:30:23.158Z,98311.66
2022-10-19T06:32:52.581Z,98309.09
2022-10-19T06:35:22.333Z,98310.88
2022-10-19T06:37:51.918Z,98318.59
2022-10-19T06:40:21.566Z,98315.75
2022-10-19T06:42:52.370Z,98320.06
2022-10-19T06:45:22.037Z,98318.41
2022-10-19T06:47:54.000Z,98328.38
2022-10-19T06:50:23.521Z,98336.66
2022-10-19T06:52:52.845Z,98332.31
2022-10-19T06:55:22.095Z,98341.94
2022-10-19T06:57:53.093Z,98345.03
2022-10-19T07:00:22.732Z,98341.22
2022-10-19T07:02:52.508Z,98331.72
2022-10-19T07:05:21.805Z,98340.97
2022-10-19T07:07:50.858Z,98342.09
2022-10-19T07:10:20.032Z,98337.88
2022-10-19T07:12:49.392Z,98358.44
2022-10-19T07:15:21.677Z,98365.31
2022-10-19T07:17:52.168Z,98369.44
2022-10-19T07:20:21.551Z,98376.34
2022-10-19T07:22:50.963Z,98378.34
2022-10-19T07:25:21.352Z,98375.22
2022-10-19T07:27:50.733Z,98364.72
2022-10-19T07:30:21.943Z,98370.41
2022-10-19T07:32:51.541Z,98371.19
2022-10-19T07:35:20.832Z,98364.88
2022-10-19T07:37:50.524Z,98364.56
2022-10-19T07:40:22.236Z,98362.81
2022-10-19T07:42:51.798Z,98366.63
2022-10-19T07:45:23.021Z,98365.41
2022-10-19T07:47:52.809Z,98363.97
2022-10-19T07:50:23.212Z,98374.06
2022-10-19T07:52:53.835Z,98379.19
2022-10-19T07:55:23.712Z,98376.47
2022-10-19T07:57:53.023Z,98382.78
2022-10-19T08:00:23.999Z,98381.72
2022-10-19T08:02:57.749Z,98389.97
2022-10-19T08:05:42.901Z,98381.63
2022-10-19T08:08:12.248Z,98385.19
2022-10-19T08:10:41.623Z,98387.16
2022-10-19T08:13:10.999Z,98383.81
2022-10-19T08:15:41.827Z,98386.44
2022-10-19T08:18:11.566Z,98382.63
2022-10-19T08:20:43.019Z,98378.66
2022-10-19T08:23:12.590Z,98373.19
2022-10-19T08:25:41.858Z,98372.38
2022-10-19T08:28:11.525Z,98375.50
2022-10-19T08:30:42.627Z,98364.66
2022-10-19T08:33:14.673Z,98362.44
2022-10-19T08:35:44.113Z,98361.97
2022-10-19T08:38:13.453Z,98367.38
2022-10-19T08:40:43.177Z,98371.81
2022-10-19T08:43:18.171Z,98366.25
2022-10-19T08:45:57.025Z,98368.50
2022-10-19T08:48:29.233Z,98374.72
2022-10-19T08:50:59.567Z,98369.97
2022-10-19T08:53:42.889Z,98373.91
2022-10-19T08:56:50.087Z,98370.75
2022-10-19T08:59:21.729Z,98361.97
2022-10-19T09:01:55.430Z,98363.63
2022-10-19T09:04:27.708Z,98367.47
2022-10-19T09:07:21.088Z,98362.38
2022-10-19T09:09:53.025Z,98354.50
2022-10-19T09:12:32.505Z,98360.84
2022-10-19T09:15:05.923Z,98364.44
2022-10-19T09:17:37.089Z,98356.06
2022-10-19T09:20:17.698Z,98362.50
2022-10-19T09:22:47.476Z,98365.19
2022-10-19T09:25:21.153Z,98361.41
2022-10-19T09:27:55.920Z,98368.78
2022-10-19T09:30:25.876Z,98367.59
2022-10-19T09:33:01.588Z,98366.34
2022-10-19T09:35:33.631Z,98375.63
2022-10-19T09:38:03.225Z,98373.81
2022-10-19T09:40:33.263Z,98378.53
2022-10-19T09:43:19.406Z,98384.81
2022-10-19T09:45:52.731Z,98382.59
2022-10-19T09:48:29.552Z,98382.44
2022-10-19T09:51:02.522Z,98382.22
2022-10-19T09:53:32.662Z,98379.78
2022-10-19T09:56:06.275Z,98376.66
2022-10-19T09:58:37.322Z,98376.47
2022-10-19T10:01:07.184Z,98368.09
2022-10-19T10:03:40.474Z,98370.59
2022-10-19T10:06:11.895Z,98361.22
2022-10-19T10:08:47.557Z,98361.34
2022-10-19T10:11:24.192Z,98348.94
2022-10-19T10:13:55.468Z,98349.47
2022-10-19T10:16:27.017Z,98354.09
2022-10-19T10:18:59.476Z,98348.59
2022-10-19T10:21:32.540Z,98346.22
2022-10-19T10:24:06.081Z,98349.63
2022-10-19T10:26:40.377Z,98337.69
2022-10-19T10:29:20.458Z,98329.66
2022-10-19T10:31:51.877Z,98333.75
2022-10-19T10:34:38.787Z,98327.41
2022-10-19T10:37:22.072Z,98323.72
2022-10-19T10:39:53.362Z,98324.41
2022-10-19T10:42:31.052Z,98322.53
2022-10-19T10:45:00.943Z,98312.91
2022-10-19T10:47:30.678Z,98310.16
2022-10-19T10:50:05.914Z,98302.06
2022-10-19T10:52:37.340Z,98303.31
2022-10-19T10:55:21.057Z,98296.56
2022-10-19T10:57:53.308Z,98290.81
2022-10-19T11:00:25.234Z,98296.94
2022-10-19T11:02:57.960Z,98281.91
2022-10-19T11:05:29.845Z,98282.81
2022-10-19T11:08:05.600Z,98272.63
2022-10-19T11:10:37.229Z,98262.63
2022-10-19T11:13:12.335Z,98269.34
2022-10-19T11:15:48.647Z,98268.06
2022-10-19T11:18:20.961Z,98260.78
2022-10-19T11:20:59.083Z,98258.28
2022-10-19T11:23:38.927Z,98258.00
2022-10-19T11:26:16.270Z,98255.28
2022-10-19T11:28:55.405Z,98249.22
2022-10-19T11:31:39.992Z,98252.81
2022-10-19T11:34:16.522Z,98251.50
2022-10-19T11:36:56.509Z,98248.56
2022-10-19T11:39:49.017Z,98246.19
2022-10-19T11:42:23.603Z,98241.31
2022-10-19T11:45:02.731Z,98233.78
2022-10-19T11:47:43.358Z,98233.84
2022-10-19T11:50:27.085Z,98227.63
2022-10-19T11:53:05.617Z,98221.22
2022-10-19T11:55:41.682Z,98211.63
2022-10-19T11:58:28.928Z,98223.69
2022-10-19T12:01:04.857Z,98211.91
2022-10-19T12:03:58.733Z,98209.06
2022-10-19T12:06:32.423Z,98201.53
2022-10-19T12:09:28.236Z,98195.41
2022-10-19T12:12:09.955Z,98194.91
2022-10-19T12:14:42.129Z,98191.84
2022-10-19T12:17:15.430Z,98193.25
2022-10-19T12:19:48.273Z,98185.59
2022-10-19T12:22:20.829Z,98182.09
2022-10-19T12:24:53.312Z,98181.00
2022-10-19T12:27:29.738Z,98171.84
2022-10-19T12:30:04.136Z,98178.69
2022-10-19T12:32:40.696Z,98168.19
2022-10-19T12:35:21.847Z,98172.38
2022-10-19T12:37:55.816Z,98177.09
2022-10-19T12:40:33.202Z,98173.75
2022-10-19T12:43:08.594Z,98171.81
2022-10-19T12:45:39.631Z,98170.19
2022-10-19T12:48:20.820Z,98165.59
2022-10-19T12:51:12.427Z,98167.00
2022-10-19T12:53:44.510Z,98161.38
2022-10-19T12:56:21.552Z,98160.22
2022-10-19T12:58:55.509Z,98166.31
2022-10-19T13:01:27.583Z,98158.47
2022-10-19T13:04:11.483Z,98147.88
2022-10-19T13:06:43.835Z,98155.13
2022-10-19T13:09:25.331Z,98152.00
2022-10-19T13:12:31.193Z,98152.38
2022-10-19T14:16:23.636Z,98116.41
2022-10-19T14:18:57.146Z,98115.13
2022-10-19T14:21:34.760Z,98118.41
2022-10-19T14:24:04.414Z,98121.78
2022-10-19T14:26:34.390Z,98116.69
2022-10-19T14:29:04.078Z,98110.88
2022-10-19T14:31:37.640Z,98114.56
2022-10-19T14:34:10.324Z,98123.28
2022-10-19T14:36:41.051Z,98114.06
2022-10-19T14:39:31.613Z,98119.59
2022-10-19T14:42:09.769Z,98125.13
2022-10-19T14:44:44.285Z,98116.56
2022-10-19T14:47:22.224Z,98130.28
2022-10-19T14:49:53.191Z,98129.66
2022-10-19T14:55:12.640Z,98134.28
2022-10-19T14:57:47.778Z,98125.72
2022-10-19T15:00:21.192Z,98132.72
2022-10-19T15:02:58.510Z,98134.53
2022-10-19T15:05:33.462Z,98127.53
2022-10-19T15:08:09.094Z,98133.34
2022-10-19T15:10:45.941Z,98135.09
2022-10-19T15:13:25.047Z,98133.06
2022-10-19T15:15:56.816Z,98139.06
2022-10-19T15:18:48.397Z,98136.53
2022-10-19T15:21:33.612Z,98153.97
2022-10-19T15:47:00.796Z,98157.88
2022-10-19T15:49:54.466Z,98164.56
2022-10-19T15:52:24.836Z,98163.69
2022-10-19T15:54:55.920Z,98162.84
2022-10-19T15:57:29.073Z,98165.28
2022-10-19T16:00:00.675Z,98159.84
2022-10-19T16:02:30.120Z,98166.16
2022-10-19T16:05:01.266Z,98160.59
2022-10-19T16:07:33.559Z,98170.81
2022-10-19T16:10:03.494Z,98172.78
2022-10-19T16:12:33.311Z,98171.72
2022-10-19T16:15:02.681Z,98176.44
2022-10-19T16:17:32.837Z,98181.00
2022-10-19T16:20:04.639Z,98180.69
2022-10-19T16:22:34.759Z,98183.03
2022-10-19T16:25:04.713Z,98190.28
2022-10-19T16:27:35.832Z,98198.09
2022-10-19T16:30:06.480Z,98191.28
2022-10-19T16:32:38.211Z,98191.94
2022-10-19T16:35:11.608Z,98199.34
2022-10-19T16:37:40.886Z,98193.38
2022-10-19T16:40:11.415Z,98200.75
2022-10-19T16:42:40.826Z,98205.78
2022-10-19T16:45:11.570Z,98206.69
2022-10-19T16:47:47.799Z,98221.13
2022-10-19T17:46:50.562Z,98281.16
2022-10-19T17:49:20.296Z,98284.91
2022-10-19T17:51:50.054Z,98282.72
2022-10-19T17:54:19.408Z,98280.63
2022-10-19T17:56:51.497Z,98277.03
2022-10-19T17:59:30.063Z,98279.97
2022-10-19T18:02:07.616Z,98283.00
2022-10-19T18:07:06.033Z,98286.72
2022-10-19T18:09:35.600Z,98288.59
2022-10-19T18:12:07.603Z,98290.50
2022-10-19T18:14:37.145Z,98286.25
2022-10-19T18:17:08.194Z,98290.72
2022-10-19T18:19:37.529Z,98289.38
2022-10-19T18:22:07.230Z,98289.84
2022-10-19T18:24:37.087Z,98287.97
2022-10-19T18:27:06.669Z,98291.28
2022-10-19T18:29:39.827Z,98293.81
2022-10-19T18:32:10.970Z,98289.84
2022-10-19T18:34:41.202Z,98291.50
2022-10-19T18:37:10.650Z,98292.63
2022-10-19T18:39:41.597Z,98295.00
2022-10-19T18:42:12.887Z,98295.00
2022-10-19T18:44:42.309Z,98295.91
2022-10-19T18:47:13.235Z,98293.63
2022-10-19T18:49:42.549Z,98298.34
2022-10-19T18:52:12.636Z,98292.06
2022-10-19T18:54:43.259Z,98290.88
2022-10-19T18:57:12.853Z,98293.19
2022-10-19T18:59:42.516Z,98294.31
2022-10-19T19:02:22.196Z,98304.88
2022-10-19T19:04:52.142Z,98303.41
2022-10-19T19:07:22.278Z,98298.78
2022-10-19T19:09:52.305Z,98301.84
2022-10-19T19:12:22.509Z,98300.06
2022-10-19T19:14:51.987Z,98302.22
2022-10-19T19:17:22.920Z,98298.00
2022-10-19T19:19:52.640Z,98294.66
2022-10-19T19:22:25.917Z,98301.47
2022-10-19T19:24:55.276Z,98300.44
2022-10-19T19:27:31.411Z,98298.97
2022-10-19T19:30:05.000Z,98301.09
2022-10-19T19:32:37.042Z,98301.50
2022-10-19T19:35:07.210Z,98309.44
2022-10-19T19:37:37.960Z,98302.16
2022-10-19T19:40:08.720Z,98312.75
2022-10-19T19:42:39.486Z,98310.91
2022-10-19T19:45:10.370Z,98315.31
2022-10-19T19:47:41.884Z,98301.56
2022-10-19T19:50:12.196Z,98317.72
2022-10-19T19:52:41.621Z,98322.59
2022-10-19T19:55:11.190Z,98326.16
2022-10-19T19:57:40.456Z,98333.97
2022-10-19T20:00:12.787Z,98331.25
2022-10-19T20:02:43.450Z,98332.25
2022-10-19T20:05:12.997Z,98336.41
2022-10-19T20:07:42.294Z,98336.69
2022-10-19T20:10:11.964Z,98340.59
2022-10-19T20:12:41.993Z,98348.66
2022-10-19T20:15:12.255Z,98350.13
2022-10-19T20:17:43.777Z,98351.69
2022-10-19T20:20:14.634Z,98355.19
2022-10-19T20:22:48.109Z,98366.53
2022-10-19T20:25:17.879Z,98355.69
2022-10-19T20:27:47.408Z,98360.09
2022-10-19T20:30:16.885Z,98366.78
2022-10-19T20:32:50.297Z,98361.47
2022-10-19T20:35:19.569Z,98368.41
2022-10-19T20:37:50.828Z,98374.16
2022-10-19T20:40:20.709Z,98374.63
2022-10-19T20:42:50.218Z,98372.13
2022-10-19T20:45:21.872Z,98372.41
2022-10-19T21:42:08.588Z,98425.84
2022-10-19T21:44:38.829Z,98434.16
2022-10-19T21:47:08.150Z,98435.09
2022-10-19T21:49:37.451Z,98436.50
2022-10-19T21:52:06.504Z,98444.63
2022-10-19T21:54:35.652Z,98439.75
2022-10-19T21:57:05.297Z,98436.31
2022-10-19T21:59:36.319Z,98436.59
2022-10-19T22:02:05.932Z,98447.41
2022-10-19T22:04:35.177Z,98450.63
2022-10-19T22:07:05.390Z,98454.78
2022-10-19T22:09:34.950Z,98450.13
2022-10-19T22:12:04.171Z,98453.81
2022-10-19T22:14:34.892Z,98455.91
2022-10-19T22:17:04.245Z,98458.34
2022-10-19T22:19:34.770Z,98461.09
2022-10-19T22:22:03.977Z,98457.72
2022-10-19T22:24:34.808Z,98460.50
2022-10-19T22:27:04.350Z,98474.13
2022-10-19T22:29:35.284Z,98472.97
2022-10-19T22:32:04.757Z,98473.09
2022-10-19T22:34:35.389Z,98467.94
2022-10-19T22:37:04.884Z,98472.44
2022-10-19T22:39:34.631Z,98473.66
2022-10-19T22:42:03.929Z,98473.63
2022-10-19T22:44:35.252Z,98478.97
2022-10-19T22:47:25.932Z,98477.13
2022-10-19T23:34:05.490Z,98496.31
2022-10-19T23:36:58.785Z,98496.22
2022-10-19T23:39:27.939Z,98502.31
2022-10-19T23:41:57.340Z,98498.22
2022-10-19T23:44:26.634Z,98498.81
2022-10-19T23:46:58.406Z,98489.53
2022-10-19T23:49:29.085Z,98490.22
2022-10-19T23:51:58.002Z,98490.44
2022-10-19T23:54:27.528Z,98493.94
2022-10-19T23:56:56.965Z,98500.63
2022-10-19T23:59:28.852Z,98498.47
